createdAt,value
2017-07-17T00:01:07.845Z,101876.72
2017-07-17T00:03:36.195Z,101869.31
2017-07-17T00:06:05.129Z,101870.59
2017-07-17T00:08:33.464Z,101881.20
2017-07-17T00:11:01.809Z,101881.10
2017-07-17T00:13:30.411Z,101887.63
2017-07-17T00:15:58.744Z,101881.76
2017-07-17T00:18:27.108Z,101878.11
2017-07-17T00:20:55.789Z,101872.21
2017-07-17T00:23:24.138Z,101877.75
2017-07-17T00:25:52.458Z,101870.98
2017-07-17T00:28:21.461Z,101879.75
2017-07-17T00:30:49.783Z,101882.34
2017-07-17T00:33:18.119Z,101878.28
2017-07-17T00:35:46.896Z,101875.72
2017-07-17T00:38:15.268Z,101878.70
2017-07-17T00:40:43.579Z,101875.91
2017-07-17T00:43:12.197Z,101878.09
2017-07-17T00:45:40.528Z,101884.56
2017-07-17T00:48:08.867Z,101892.74
2017-07-17T00:50:37.719Z,101886.98
2017-07-17T00:53:06.041Z,101885.56
2017-07-17T00:55:34.363Z,101893.19
2017-07-17T00:58:03.230Z,101893.32
2017-07-17T01:00:31.551Z,101901.63
2017-07-17T01:02:59.868Z,101894.58
2017-07-17T01:05:28.505Z,101890.52
2017-07-17T01:07:56.829Z,101891.23
2017-07-17T01:10:25.946Z,101888.20
2017-07-17T01:12:54.921Z,101892.98
2017-07-17T01:15:23.245Z,101902.92
2017-07-17T01:17:51.575Z,101899.18
2017-07-17T01:20:20.395Z,101891.67
2017-07-17T01:22:48.726Z,101896.78
2017-07-17T01:25:17.077Z,101901.69
2017-07-17T01:27:45.676Z,101896.30
2017-07-17T01:30:13.992Z,101890.55
2017-07-17T01:32:43.107Z,101889.88
2017-07-17T01:35:11.886Z,101896.83
2017-07-17T01:37:40.224Z,101895.41
2017-07-17T01:40:08.562Z,101893.02
2017-07-17T01:42:37.181Z,101902.88
2017-07-17T01:45:05.518Z,101897.05
2017-07-17T01:47:33.855Z,101892.23
2017-07-17T01:50:02.785Z,101894.56
2017-07-17T01:52:31.140Z,101900.66
2017-07-17T01:55:00.232Z,101900.13
2017-07-17T01:57:29.374Z,101895.45
2017-07-17T01:59:57.719Z,101890.16
2017-07-17T02:02:26.050Z,101891.08
2017-07-17T02:04:54.721Z,101899.82
2017-07-17T02:07:23.051Z,101895.67
2017-07-17T02:09:52.160Z,101892.66
2017-07-17T02:12:20.822Z,101890.08
2017-07-17T02:14:49.171Z,101884.11
2017-07-17T02:17:17.523Z,101888.31
2017-07-17T02:19:46.320Z,101896.95
2017-07-17T02:22:14.660Z,101894.70
2017-07-17T02:24:43.002Z,101899.13
2017-07-17T02:27:11.858Z,101905.81
2017-07-17T02:29:40.198Z,101911.23
2017-07-17T02:32:08.547Z,101917.44
2017-07-17T02:34:37.292Z,101917.73
2017-07-17T02:37:05.648Z,101908.18
2017-07-17T02:39:33.976Z,101905.22
2017-07-17T02:42:02.942Z,101906.20
2017-07-17T02:44:31.261Z,101908.78
2017-07-17T02:46:59.599Z,101910.11
2017-07-17T02:49:29.073Z,101912.42
2017-07-17T02:51:58.283Z,101912.02
2017-07-17T02:54:26.616Z,101910.43
2017-07-17T02:56:55.246Z,101910.59
2017-07-17T02:59:23.583Z,101909.98
2017-07-17T03:01:51.931Z,101908.43
2017-07-17T03:04:20.924Z,101909.04
2017-07-17T03:06:49.260Z,101916.59
2017-07-17T03:09:17.597Z,101913.81
2017-07-17T03:11:46.364Z,101915.03
2017-07-17T03:14:14.706Z,101925.30
2017-07-17T03:16:43.055Z,101923.83
2017-07-17T03:19:11.815Z,101924.64
2017-07-17T03:21:40.160Z,101918.69
2017-07-17T03:24:16.714Z,101918.45
2017-07-17T03:26:45.044Z,101917.51
2017-07-17T03:29:13.379Z,101916.99
2017-07-17T03:31:42.194Z,101912.28
2017-07-17T03:34:10.513Z,101914.19
2017-07-17T03:36:38.886Z,101921.16
2017-07-17T03:39:07.842Z,101915.81
2017-07-17T03:41:36.165Z,101920.30
2017-07-17T03:44:04.497Z,101925.47
2017-07-17T03:46:34.310Z,101929.16
2017-07-17T03:49:02.655Z,101921.83
2017-07-17T03:51:30.988Z,101923.06
2017-07-17T03:53:59.617Z,101929.27
2017-07-17T03:56:27.973Z,101929.95
2017-07-17T03:58:56.305Z,101923.58
2017-07-17T04:01:24.961Z,101929.73
2017-07-17T04:03:53.305Z,101930.31
2017-07-17T04:06:22.003Z,101928.15
2017-07-17T04:08:50.869Z,101930.25
2017-07-17T04:11:19.219Z,101926.88
2017-07-17T04:13:47.604Z,101930.97
2017-07-17T04:16:16.506Z,101930.01
2017-07-17T04:18:44.834Z,101927.91
2017-07-17T04:21:13.221Z,101933.11
2017-07-17T04:23:41.969Z,101929.98
2017-07-17T04:26:10.305Z,101927.45
2017-07-17T04:28:38.649Z,101927.58
2017-07-17T04:31:07.818Z,101924.91
2017-07-17T04:33:36.144Z,101924.63
2017-07-17T04:36:04.495Z,101930.98
2017-07-17T04:38:33.155Z,101934.37
2017-07-17T04:41:02.267Z,101932.75
2017-07-17T04:43:30.587Z,101938.58
2017-07-17T04:45:59.367Z,101937.27
2017-07-17T04:48:27.715Z,101935.77
2017-07-17T04:50:56.049Z,101942.17
2017-07-17T04:53:24.913Z,101941.49
2017-07-17T04:55:53.260Z,101944.13
2017-07-17T04:58:21.586Z,101943.17
2017-07-17T05:00:50.409Z,101942.70
2017-07-17T05:03:18.751Z,101943.26
2017-07-17T05:05:47.092Z,101938.00
2017-07-17T05:08:15.750Z,101937.44
2017-07-17T05:10:45.230Z,101940.52
2017-07-17T05:13:13.567Z,101942.92
2017-07-17T05:15:42.541Z,101948.80
2017-07-17T05:18:10.878Z,101946.38
2017-07-17T05:20:39.204Z,101941.93
2017-07-17T05:23:07.836Z,101949.02
2017-07-17T05:25:36.182Z,101947.70
2017-07-17T05:28:04.519Z,101947.70
2017-07-17T05:30:33.410Z,101954.91
2017-07-17T05:33:01.748Z,101959.00
2017-07-17T05:35:30.108Z,101962.71
2017-07-17T05:37:58.877Z,101960.72
2017-07-17T05:40:27.223Z,101965.76
2017-07-17T05:42:55.575Z,101960.95
2017-07-17T05:45:24.246Z,101959.04
2017-07-17T05:47:52.590Z,101957.98
2017-07-17T05:50:20.958Z,101962.35
2017-07-17T05:52:50.579Z,101971.12
2017-07-17T05:55:18.925Z,101971.88
2017-07-17T05:57:47.264Z,101970.03
2017-07-17T06:00:16.425Z,101972.28
2017-07-17T06:02:44.799Z,101975.20
2017-07-17T06:05:13.913Z,101980.66
2017-07-17T06:07:42.672Z,101985.68
2017-07-17T06:10:11.032Z,101985.06
2017-07-17T06:12:39.974Z,101987.16
2017-07-17T06:15:08.609Z,101989.74
2017-07-17T06:17:36.949Z,101996.36
2017-07-17T06:20:05.302Z,102000.52
2017-07-17T06:22:34.258Z,101998.14
2017-07-17T06:25:02.593Z,102004.48
2017-07-17T06:27:30.949Z,102006.91
2017-07-17T06:29:59.847Z,102004.59
2017-07-17T06:32:28.208Z,102015.34
2017-07-17T06:34:56.557Z,102017.50
2017-07-17T06:37:25.203Z,102020.07
2017-07-17T06:39:53.539Z,102017.17
2017-07-17T06:42:21.905Z,102016.25
2017-07-17T06:44:50.747Z,102016.81
2017-07-17T06:47:19.093Z,102012.17
2017-07-17T06:49:47.427Z,102017.96
2017-07-17T06:52:16.097Z,102022.47
2017-07-17T06:54:44.439Z,102015.11
2017-07-17T06:57:12.760Z,102018.27
2017-07-17T06:59:41.425Z,102023.38
2017-07-17T07:02:09.746Z,102017.97
2017-07-17T07:04:38.049Z,102022.02
2017-07-17T07:07:07.087Z,102021.94
2017-07-17T07:09:35.421Z,102022.93
2017-07-17T07:12:03.759Z,102023.31
2017-07-17T07:14:32.767Z,102025.28
2017-07-17T07:17:01.109Z,102031.64
2017-07-17T07:19:30.202Z,102025.15
2017-07-17T07:21:59.618Z,102027.90
2017-07-17T07:24:27.990Z,102026.13
2017-07-17T07:26:57.135Z,102023.33
2017-07-17T07:29:25.943Z,102029.48
2017-07-17T07:31:54.290Z,102028.06
2017-07-17T07:34:22.617Z,102026.31
2017-07-17T07:36:51.561Z,102019.48
2017-07-17T07:39:19.887Z,102022.37
2017-07-17T07:41:48.987Z,102017.29
2017-07-17T07:44:18.608Z,102023.44
2017-07-17T07:46:46.956Z,102018.43
2017-07-17T07:49:15.277Z,102022.38
2017-07-17T07:51:44.411Z,102017.45
2017-07-17T07:54:12.745Z,102019.13
2017-07-17T07:56:41.103Z,102013.13
2017-07-17T07:59:10.530Z,102016.75
2017-07-17T08:01:38.860Z,102016.41
2017-07-17T08:04:07.211Z,102015.34
2017-07-17T08:06:35.973Z,102026.01
2017-07-17T08:09:04.316Z,102028.88
2017-07-17T08:11:32.661Z,102030.77
2017-07-17T08:14:01.697Z,102025.25
2017-07-17T08:16:30.040Z,102021.75
2017-07-17T08:18:58.382Z,102022.32
2017-07-17T08:21:27.268Z,102019.03
2017-07-17T08:23:55.610Z,102019.95
2017-07-17T08:26:23.955Z,102015.49
2017-07-17T08:28:52.611Z,102018.71
2017-07-17T08:31:20.945Z,102014.59
2017-07-17T08:33:49.288Z,102009.15
2017-07-17T08:36:18.151Z,102006.57
2017-07-17T08:38:46.502Z,102010.25
2017-07-17T08:41:14.835Z,102010.24
2017-07-17T08:43:43.512Z,102019.64
2017-07-17T08:46:11.842Z,102017.52
2017-07-17T08:48:40.168Z,102017.45
2017-07-17T08:51:09.053Z,102013.30
2017-07-17T08:53:37.389Z,102017.47
2017-07-17T08:56:05.718Z,102020.52
2017-07-17T08:58:34.890Z,102018.82
2017-07-17T09:01:03.230Z,102018.98
2017-07-17T09:03:31.565Z,102020.45
2017-07-17T09:06:00.357Z,102025.70
2017-07-17T09:08:28.700Z,102014.01
2017-07-17T09:10:57.062Z,102017.14
2017-07-17T09:13:25.734Z,102009.95
2017-07-17T09:15:54.079Z,102014.59
2017-07-17T09:18:22.409Z,102019.25
2017-07-17T09:20:51.395Z,102022.65
2017-07-17T09:23:19.737Z,102022.30
2017-07-17T09:25:48.076Z,102019.76
2017-07-17T09:28:16.901Z,102020.25
2017-07-17T09:30:45.233Z,102015.21
2017-07-17T09:33:13.592Z,102022.69
2017-07-17T09:35:42.222Z,102018.45
2017-07-17T09:38:10.563Z,102020.58
2017-07-17T09:40:38.924Z,102014.66
2017-07-17T09:43:07.983Z,102014.67
2017-07-17T09:45:36.330Z,102016.30
2017-07-17T09:48:04.656Z,102015.94
2017-07-17T09:50:33.434Z,102015.94
2017-07-17T09:53:01.759Z,102019.61
2017-07-17T09:55:30.158Z,102019.22
2017-07-17T09:57:58.935Z,102018.38
2017-07-17T10:00:27.240Z,102018.77
2017-07-17T10:02:56.350Z,102006.11
2017-07-17T10:05:25.334Z,102014.41
2017-07-17T10:07:53.676Z,102012.98
2017-07-17T10:10:22.010Z,102017.39
2017-07-17T10:12:50.772Z,102015.08
2017-07-17T10:15:19.118Z,102015.42
2017-07-17T10:17:47.437Z,102017.44
2017-07-17T10:20:16.130Z,102019.21
2017-07-17T10:22:45.233Z,102019.50
2017-07-17T10:25:14.342Z,102023.61
2017-07-17T10:27:43.316Z,102016.63
2017-07-17T10:30:11.643Z,102024.57
2017-07-17T10:32:39.976Z,102017.94
2017-07-17T10:35:08.671Z,102023.72
2017-07-17T10:37:37.047Z,102029.01
2017-07-17T10:40:05.391Z,102019.16
2017-07-17T10:42:33.995Z,102027.66
2017-07-17T10:45:02.329Z,102030.31
2017-07-17T10:47:30.661Z,102031.78
2017-07-17T10:49:59.639Z,102035.39
2017-07-17T10:52:27.987Z,102031.95
2017-07-17T10:54:56.341Z,102032.97
2017-07-17T10:57:25.002Z,102029.91
2017-07-17T10:59:53.348Z,102027.77
2017-07-17T11:02:21.692Z,102019.05
2017-07-17T11:04:50.543Z,102029.73
2017-07-17T11:07:18.890Z,102017.87
2017-07-17T11:09:47.235Z,102017.98
2017-07-17T11:12:15.914Z,102012.00
2017-07-17T11:14:44.233Z,102025.33
2017-07-17T11:17:12.578Z,102014.41
2017-07-17T11:19:41.225Z,102016.84
2017-07-17T11:22:09.579Z,102016.59
2017-07-17T11:24:37.930Z,102014.54
2017-07-17T11:27:06.669Z,102024.84
2017-07-17T11:29:35.008Z,102014.62
2017-07-17T11:32:03.324Z,102014.59
2017-07-17T11:34:32.840Z,102016.44
2017-07-17T11:37:01.184Z,102012.56
2017-07-17T11:39:29.507Z,102015.29
2017-07-17T11:41:58.372Z,102015.83
2017-07-17T11:44:26.714Z,102008.05
2017-07-17T11:57:09.923Z,102007.84
2017-07-17T11:59:38.858Z,102013.34
2017-07-17T12:02:07.189Z,102012.43
2017-07-17T12:04:35.527Z,102006.97
2017-07-17T12:07:04.299Z,102003.59
2017-07-17T12:09:32.648Z,102004.64
2017-07-17T12:12:01.005Z,102008.42
2017-07-17T12:14:30.158Z,102008.36
2017-07-17T12:16:58.579Z,102010.41
2017-07-17T12:19:26.930Z,102021.41
2017-07-17T12:21:55.814Z,102014.53
2017-07-17T12:24:24.133Z,102010.17
2017-07-17T12:26:52.486Z,102013.13
2017-07-17T12:29:21.429Z,102012.97
2017-07-17T12:31:49.767Z,102009.40
2017-07-17T12:34:18.107Z,102010.17
2017-07-17T12:36:47.320Z,102006.51
2017-07-17T12:39:15.659Z,102010.92
2017-07-17T12:41:44.014Z,102016.02
2017-07-17T12:44:12.761Z,102014.11
2017-07-17T12:46:41.110Z,102004.20
2017-07-17T12:49:09.472Z,102007.19
2017-07-17T12:51:38.414Z,102009.30
2017-07-17T12:54:06.746Z,102001.24
2017-07-17T12:56:35.077Z,102001.98
2017-07-17T12:59:05.294Z,101998.20
2017-07-17T13:01:33.648Z,102000.59
2017-07-17T13:04:02.766Z,102002.13
2017-07-17T13:06:31.436Z,102006.61
2017-07-17T13:08:59.808Z,102005.53
2017-07-17T13:11:28.153Z,102002.40
2017-07-17T13:13:56.788Z,102005.95
2017-07-17T13:16:25.111Z,102008.88
2017-07-17T13:18:53.460Z,102006.00
2017-07-17T13:21:22.644Z,102001.08
2017-07-17T13:23:50.986Z,102001.42
2017-07-17T13:26:19.339Z,102004.45
2017-07-17T13:28:48.086Z,102004.56
2017-07-17T13:31:16.413Z,102004.22
2017-07-17T13:33:44.742Z,102001.47
2017-07-17T13:36:14.396Z,102004.81
2017-07-17T13:38:42.768Z,101997.00
2017-07-17T13:41:11.153Z,101995.60
2017-07-17T13:43:40.001Z,101998.64
2017-07-17T13:46:08.358Z,102004.92
2017-07-17T13:48:36.704Z,102006.80
2017-07-17T13:51:05.452Z,102010.20
2017-07-17T13:53:33.796Z,102010.83
2017-07-17T13:56:02.160Z,102004.47
2017-07-17T13:58:30.893Z,102003.23
2017-07-17T14:00:59.259Z,102009.64
2017-07-17T14:03:28.353Z,101999.19
2017-07-17T14:05:58.161Z,102001.69
2017-07-17T14:08:26.505Z,102006.45
2017-07-17T14:10:54.854Z,102011.33
2017-07-17T14:13:23.632Z,102007.64
2017-07-17T14:15:51.968Z,102000.50
2017-07-17T14:18:20.330Z,102006.04
2017-07-17T14:20:49.075Z,102005.23
2017-07-17T14:23:17.415Z,102011.33
2017-07-17T14:25:45.785Z,102005.00
2017-07-17T14:28:15.123Z,102006.27
2017-07-17T14:30:43.465Z,101998.94
2017-07-17T14:33:11.862Z,101996.19
2017-07-17T14:35:40.677Z,102005.62
2017-07-17T14:38:09.016Z,102007.69
2017-07-17T14:40:37.383Z,102006.45
2017-07-17T14:43:06.000Z,102006.94
2017-07-17T14:45:34.343Z,102001.85
2017-07-17T14:48:02.669Z,102002.21
2017-07-17T14:50:32.486Z,101990.95
2017-07-17T14:53:00.839Z,101989.59
2017-07-17T14:55:29.170Z,101990.80
2017-07-17T14:57:57.809Z,101990.58
2017-07-17T15:00:26.938Z,101990.58
2017-07-17T15:02:55.281Z,101988.51
2017-07-17T15:05:24.228Z,101991.12
2017-07-17T15:07:52.596Z,101991.55
2017-07-17T15:10:20.960Z,101993.31
2017-07-17T15:12:50.088Z,101991.97
2017-07-17T15:15:18.409Z,101994.62
2017-07-17T15:17:46.732Z,101992.94
2017-07-17T15:20:15.694Z,101989.23
2017-07-17T15:22:44.030Z,101984.72
2017-07-17T15:25:12.385Z,101987.10
2017-07-17T15:27:41.031Z,101984.72
2017-07-17T15:30:10.139Z,101984.35
2017-07-17T15:32:38.485Z,101978.56
2017-07-17T15:35:07.621Z,101978.15
2017-07-17T15:37:35.988Z,101985.20
2017-07-17T15:40:04.381Z,101980.62
2017-07-17T15:42:33.137Z,101975.71
2017-07-17T15:45:02.261Z,101978.18
2017-07-17T15:47:30.610Z,101971.90
2017-07-17T15:49:59.290Z,101978.31
2017-07-17T15:52:27.632Z,101982.36
2017-07-17T15:54:55.975Z,101981.67
2017-07-17T15:57:25.450Z,101976.52
2017-07-17T15:59:53.800Z,101979.67
2017-07-17T16:02:22.150Z,101978.48
2017-07-17T16:04:51.149Z,101971.31
2017-07-17T16:07:19.511Z,101977.17
2017-07-17T16:09:47.869Z,101974.33
2017-07-17T16:12:16.678Z,101975.78
2017-07-17T16:14:45.053Z,101976.09
2017-07-17T16:17:13.391Z,101969.67
2017-07-17T16:19:42.534Z,101976.45
2017-07-17T16:22:10.873Z,101976.45
2017-07-17T16:24:39.210Z,101974.52
2017-07-17T16:27:07.891Z,101972.70
2017-07-17T16:29:36.244Z,101968.59
2017-07-17T16:32:04.580Z,101962.72
2017-07-17T16:34:33.428Z,101967.02
2017-07-17T16:37:01.775Z,101963.23
2017-07-17T16:39:30.133Z,101964.42
2017-07-17T16:41:59.127Z,101961.68
2017-07-17T16:44:27.488Z,101959.13
2017-07-17T16:46:55.840Z,101964.30
2017-07-17T16:49:24.521Z,101969.54
2017-07-17T16:51:52.951Z,101973.83
2017-07-17T16:54:21.298Z,101972.05
2017-07-17T16:56:50.167Z,101977.30
2017-07-17T16:59:18.499Z,101976.95
2017-07-17T17:01:46.825Z,101976.47
2017-07-17T17:04:16.652Z,101977.45
2017-07-17T17:06:45.005Z,101977.59
2017-07-17T17:09:14.114Z,101973.16
2017-07-17T17:11:43.600Z,101974.87
2017-07-17T17:14:12.734Z,101975.64
2017-07-17T17:16:41.106Z,101977.95
2017-07-17T17:19:10.008Z,101981.11
2017-07-17T17:21:38.347Z,101973.28
2017-07-17T17:24:06.685Z,101975.19
2017-07-17T17:26:35.781Z,101975.59
2017-07-17T17:29:04.156Z,101969.29
2017-07-17T17:31:32.509Z,101973.11
2017-07-17T17:34:01.127Z,101970.48
2017-07-17T17:36:29.465Z,101973.00
2017-07-17T17:38:58.551Z,101978.97
2017-07-17T17:41:27.167Z,101974.80
2017-07-17T17:43:55.535Z,101972.14
2017-07-17T17:46:23.892Z,101977.06
2017-07-17T17:48:52.987Z,101976.92
2017-07-17T17:51:21.340Z,101977.20
2017-07-17T17:53:49.795Z,101971.03
2017-07-17T17:56:18.424Z,101971.09
2017-07-17T17:58:46.789Z,101973.41
2017-07-17T18:01:15.142Z,101973.23
2017-07-17T18:03:43.999Z,101973.45
2017-07-17T18:06:12.342Z,101975.34
2017-07-17T18:08:40.678Z,101979.44
2017-07-17T18:11:09.527Z,101980.27
2017-07-17T18:13:37.870Z,101982.30
2017-07-17T18:16:06.241Z,101981.56
2017-07-17T18:18:34.918Z,101972.83
2017-07-17T18:21:03.275Z,101983.20
2017-07-17T18:23:31.620Z,101990.25
2017-07-17T18:26:00.442Z,101980.33
2017-07-17T18:28:28.783Z,101978.89
2017-07-17T18:30:57.125Z,101988.50
2017-07-17T18:33:26.165Z,101982.00
2017-07-17T18:35:55.275Z,101975.99
2017-07-17T18:38:24.401Z,101982.89
2017-07-17T18:40:53.019Z,101979.16
2017-07-17T18:43:21.362Z,101985.98
2017-07-17T18:45:49.710Z,101991.48
2017-07-17T18:48:18.621Z,101990.88
2017-07-17T18:50:46.956Z,101993.30
2017-07-17T18:53:15.306Z,102001.38
2017-07-17T18:55:44.464Z,101995.31
2017-07-17T18:58:12.811Z,101999.52
2017-07-17T19:00:41.151Z,102001.38
2017-07-17T19:03:09.883Z,102003.00
2017-07-17T19:05:38.219Z,102002.91
2017-07-17T19:08:06.547Z,102005.47
2017-07-17T19:10:35.940Z,102008.02
2017-07-17T19:13:04.318Z,102011.31
2017-07-17T19:15:33.426Z,102011.02
2017-07-17T19:18:03.259Z,102016.22
2017-07-17T19:20:31.597Z,102013.47
2017-07-17T19:22:59.977Z,102011.44
2017-07-17T19:25:28.828Z,102019.94
2017-07-17T19:27:57.173Z,102018.88
2017-07-17T19:30:25.516Z,102021.12
2017-07-17T19:32:54.366Z,102021.77
2017-07-17T19:35:22.699Z,102023.05
2017-07-17T19:37:51.044Z,102029.52
2017-07-17T19:40:19.865Z,102037.28
2017-07-17T19:42:48.214Z,102037.75
2017-07-17T19:45:16.567Z,102040.14
2017-07-17T19:47:45.447Z,102038.54
2017-07-17T19:50:13.781Z,102047.52
2017-07-17T19:52:42.113Z,102047.57
2017-07-17T19:55:10.740Z,102051.24
2017-07-17T19:57:39.097Z,102052.94
2017-07-17T20:00:07.489Z,102057.90
2017-07-17T20:02:36.381Z,102055.45
2017-07-17T20:05:04.718Z,102047.78
2017-07-17T20:07:33.045Z,102056.04
2017-07-17T20:10:01.738Z,102054.47
2017-07-17T20:12:30.074Z,102054.84
2017-07-17T20:14:58.416Z,102060.19
2017-07-17T20:17:28.058Z,102058.97
2017-07-17T20:19:56.418Z,102064.61
2017-07-17T20:22:25.548Z,102064.80
2017-07-17T20:24:54.515Z,102063.66
2017-07-17T20:27:22.847Z,102068.72
2017-07-17T20:29:51.175Z,102072.83
2017-07-17T20:32:20.200Z,102079.52
2017-07-17T20:34:48.553Z,102075.41
2017-07-17T20:37:16.902Z,102081.90
2017-07-17T20:39:45.554Z,102081.20
2017-07-17T20:42:13.893Z,102084.50
2017-07-17T20:44:42.246Z,102087.23
2017-07-17T20:47:12.071Z,102085.08
2017-07-17T20:49:40.419Z,102085.64
2017-07-17T20:52:08.780Z,102079.16
2017-07-17T20:54:37.729Z,102081.84
2017-07-17T20:57:06.139Z,102085.70
2017-07-17T20:59:34.483Z,102087.32
2017-07-17T21:02:03.176Z,102083.95
2017-07-17T21:04:31.537Z,102085.88
2017-07-17T21:06:59.906Z,102085.00
2017-07-17T21:09:28.657Z,102091.50
2017-07-17T21:11:57.027Z,102086.59
2017-07-17T21:14:25.391Z,102083.45
2017-07-17T21:16:54.341Z,102089.16
2017-07-17T21:19:22.688Z,102080.97
2017-07-17T21:21:51.022Z,102086.50
2017-07-17T21:24:19.727Z,102082.88
2017-07-17T21:26:48.087Z,102087.60
2017-07-17T21:29:16.442Z,102079.02
2017-07-17T21:31:45.244Z,102086.05
2017-07-17T21:34:14.339Z,102087.01
2017-07-17T21:36:43.429Z,102081.73
2017-07-17T21:39:12.255Z,102081.33
2017-07-17T21:41:40.591Z,102089.68
2017-07-17T21:44:08.954Z,102089.41
2017-07-17T21:46:37.888Z,102096.58
2017-07-17T21:49:06.240Z,102094.77
2017-07-17T21:51:34.578Z,102095.61
2017-07-17T21:54:03.354Z,102096.46
2017-07-17T21:56:31.711Z,102092.77
2017-07-17T21:59:00.808Z,102090.55
2017-07-17T22:01:30.214Z,102092.48
2017-07-17T22:03:58.558Z,102083.34
2017-07-17T22:06:26.907Z,102089.79
2017-07-17T22:08:55.676Z,102092.53
2017-07-17T22:11:24.025Z,102093.57
2017-07-17T22:13:53.154Z,102092.83
2017-07-17T22:16:21.888Z,102092.17
2017-07-17T22:18:50.230Z,102088.67
2017-07-17T22:21:18.583Z,102096.88
2017-07-17T22:23:47.378Z,102095.45
2017-07-17T22:26:15.710Z,102100.19
2017-07-17T22:28:44.053Z,102097.87
2017-07-17T22:31:12.917Z,102098.34
2017-07-17T22:33:41.272Z,102099.48
2017-07-17T22:36:09.626Z,102095.59
2017-07-17T22:38:38.662Z,102094.55
2017-07-17T22:41:07.014Z,102091.84
2017-07-17T22:43:35.373Z,102092.34
2017-07-17T22:46:04.315Z,102087.29
2017-07-17T22:48:32.674Z,102089.94
2017-07-17T22:51:01.787Z,102088.75
2017-07-17T22:53:30.446Z,102081.98
2017-07-17T22:55:58.791Z,102080.19
2017-07-17T22:58:27.170Z,102081.27
2017-07-17T23:00:56.270Z,102076.73
2017-07-17T23:03:24.607Z,102085.70
2017-07-17T23:05:53.711Z,102090.65
2017-07-17T23:08:23.319Z,102085.09
2017-07-17T23:10:51.658Z,102087.95
2017-07-17T23:13:19.987Z,102086.55
2017-07-17T23:15:48.772Z,102089.24
2017-07-17T23:18:17.107Z,102086.24
2017-07-17T23:20:45.451Z,102089.03
2017-07-17T23:23:14.364Z,102086.55
2017-07-17T23:25:42.693Z,102085.28
2017-07-17T23:28:11.037Z,102091.17
2017-07-17T23:30:39.862Z,102096.91
2017-07-17T23:33:08.199Z,102096.33
2017-07-17T23:35:36.550Z,102089.52
2017-07-17T23:38:05.243Z,102098.19
2017-07-17T23:40:33.586Z,102091.20
2017-07-17T23:43:01.927Z,102101.02
2017-07-17T23:45:30.748Z,102090.48
2017-07-17T23:47:59.084Z,102093.66
2017-07-17T23:50:27.450Z,102101.09
2017-07-17T23:52:56.128Z,102100.66
2017-07-17T23:55:24.458Z,102104.14
2017-07-17T23:57:52.803Z,102096.00
